Race Coverage Navigation

TS # 35 / St Peters, MO,   2019

 


TS STATS
TS Distance 40.3 
Total Distance 2068.1 
Miles To Go 970.6 
TS Climbing 2050 
Total Climbing
TS  Elevation
TS  Net Elevation 3263 
Map Filename Open Map 
Directions Filename  
Latitude 38.87 
Longitude -90.19 
Google Map  TimeStation Map 


TS Arrival Data
Arr Ord  #/Name Arrival DT TS Dst Avg This TS Avg Overall Ascending
 1 608 - Elin Starup  06/20/2019 17:25 40.3  8.67  9.51 
 2 161 - Seana Hogan  06/20/2019 3:56 40.3  12.03  10.15 
 3 424 - Team i RON man Veterans supporting Veterans  06/20/2019 2:32 40.3  11.14  10.24 
 4 399 - Valerio Zamboni  06/19/2019 22:58 40.3  8.37  10.42 
 5 618 - GREGORY ROBINSON  06/19/2019 20:14 40.3  13.43  10.55 
 6 529 - Isa Pulver  06/19/2019 16:18 40.3  14.74  10.76 
 7 610 - Kabir Rachure  06/19/2019 15:04 40.3  11.14  10.84 
 8 604 - Chieko Ozawa  06/19/2019 13:21 40.3  10.94  10.92 
 9 568 - Alexandra Meixner  06/19/2019 13:15 40.3  10.99  10.93 
 10 411 - Geoff Brunner  06/19/2019 11:22 40.3  13.58  11.07 
 11 559 - Team Martin RAAM 2019 (Martin Bergmeister)  06/19/2019 9:58 40.3  5.72  11.15 
 12 442 - Joe Barr  06/19/2019 9:46 40.3  12.34  11.16 
 13 510 - John C. Tarlton  06/19/2019 8:55 40.3  11.68  11.21 
 14 611 - Marcelo Soares " MIXIRICA "  06/19/2019 5:19 40.3  11.46  11.43 
 15 603 - Alan Bradley  06/19/2019 2:51 40.3  10.56  11.59 
 16 612 - Markus K. Brandl  06/19/2019 2:00 40.3  14.14  11.64 
 17 615 - Philipp Amhof  06/19/2019 0:52 40.3  8.11  11.71 
 18 623 - Ultra Paka Racing Team (Daniel Polman)  06/18/2019 19:03 40.3  12.21  12.1 
 19 622 - Thomas Odom-Team Kyle Pease Foundation  06/18/2019 17:36 40.3  12.03  12.21 
 20 367 - Daniela Genovesi  06/18/2019 16:11 40.3  11.8  12.31 
 21 416 - Leah Goldstein  06/18/2019 15:50 40.3  14.57  12.33 
 22 617 - SOLO.kiwi (Craig Harper)  06/18/2019 14:45 40.3  12.03  12.42 
 23 329 - Peter Oyler  06/18/2019 14:06 40.3  12.66  12.5 
 24 T210 - Bike Wine Team  06/21/2019 20:56 40.3  14.14  13.81 
 25 609 - Jakob Olsen  06/17/2019 22:00 40.3  6.81  13.82 
 26 T205 - Prevent Breast Cancer powered by Endomag  06/21/2019 20:19 40.3  12.93  13.86 
 27 T207 - Team Life Time  06/21/2019 16:25 40.3  13.82  14.23 
 28 279 - Marko Baloh  06/17/2019 17:02 40.3  13.82  14.32 
 29 T203 - JPsDuo  06/21/2019 15:14 40.3  11.97  14.34 
 30 T409 - Serpentine Golden Girls  06/21/2019 11:06 40.3  12.66  14.8 
 31 T417 - Team4RAAM 2019 powered by TGW Living Logistics  06/20/2019 23:27 40.3  13.21  16.16 
 32 T200 - AIR RELAX GoPro TEAM BRASIL  06/20/2019 22:19 40.3  16.34  16.24 
 33 T801 - Mind Over Matter  06/20/2019 21:49 40.3  16.01  16.37 
 34 377 - Christoph Strasser  06/16/2019 22:48 40.3  14.39  16.39 
 35 T403 - EKJ Denmark  06/20/2019 20:51 40.3  12.09  16.46 
 36 T806 - Team SuperMarrow  06/20/2019 21:08 40.3  13.07  16.47 
 37 T402 - EA/WFP RAAM Team  06/20/2019 20:11 40.3  16.34  16.55 
 38 T204 - Lucan CRC  06/20/2019 19:30 40.3  14.93  16.62 
 39 T413 - TEAM BRASIL - SKIPPER  06/20/2019 19:00 40.3  18.04  16.73 
 40 T206 - Project Linear Acceleration  06/20/2019 18:05 40.3  15.7  16.82 
 41 T415 - TEAM FIRE VELO 935  06/20/2019 16:48 40.3  14.93  17.04 
 42 T405 - High Rollers  06/20/2019 15:10 40.3  17.03  17.25 
 43 T803 - Team EndoPark  06/20/2019 15:21 40.3  14.06  17.26 
 44 T202 - Integra Medical - BAA Racing  06/20/2019 14:07 40.3  19.34  17.37 
 45 T414 - Brazil Nuts  06/20/2019 13:26 40.3  12.09  17.52 
 46 T412 - Team Aspect  06/20/2019 12:39 40.3  18.46  17.63 
 47 T410 - Soap-Aid  06/20/2019 11:37 40.3  16.23  17.79 
 48 T418 - The Opportunists  06/20/2019 7:36 40.3  15.7  18.44 
 49 T406 - Operation Walk Midwest  06/20/2019 6:18 40.3  17.15  18.63 
 50 T808 - Antonia's Friends 2019  06/20/2019 5:12 40.3  16.56  18.87 
 51 T400 - Cantastic4  06/20/2019 4:20 40.3  16.12  18.94 
 52 T408 - Radeln-fuer-Kinder (Cycling-for-Kids)  06/20/2019 2:22 40.3  17.03  19.32 
 53 T804 - Team FSHD Skyland Trail  06/20/2019 2:01 40.3  18.46  19.42 
 54 T416 - Team Rotary Raams Polio  06/20/2019 1:15 40.3  19.34  19.54 
 55 T802 - Scorchers  06/20/2019 0:08 40.3  15.11  19.77 
 56 T201 - EAT WELL  06/19/2019 22:00 40.3  19.98  20.08 
 57 T407 - Julian Becker   06/19/2019 21:51 40.3  19.5  20.16 
 58 T807 - Team ZOE International  06/19/2019 21:54 40.3  20.15  20.22 
 59 T805 - Team Oceanside  06/19/2019 21:33 40.3  15.02  20.28 
 60 T401 - Data Techniques powered by Networks Centre  06/19/2019 16:00 40.3  23.48  21.36 
 61 T404 - Gentlemen of speed  06/19/2019 15:24 40.3  21.03  21.51 
 62 T411 - team alpha - tischlerei groemmer  06/19/2019 10:42 40.3  17.03  22.64 
 63 T800 - Backstedt Racing Project 14  06/19/2019 10:34 40.3  23.03  22.71